createdAt,value
2022-10-01T00:01:15.948Z,4.30
2022-10-01T00:03:43.047Z,3.80
2022-10-01T00:06:18.990Z,3.67
2022-10-01T00:08:48.557Z,6.40
2022-10-01T00:11:21.392Z,4.53
2022-10-01T00:13:49.084Z,2.60
2022-10-01T00:16:22.957Z,3.40
2022-10-01T00:18:50.305Z,4.83
2022-10-01T00:21:19.605Z,5.83
2022-10-01T00:23:46.827Z,8.23
2022-10-01T00:26:16.837Z,5.00
2022-10-01T00:28:45.610Z,5.13
2022-10-01T00:31:12.849Z,4.70
2022-10-01T00:33:39.661Z,5.43
2022-10-01T00:36:08.033Z,3.67
2022-10-01T00:38:34.868Z,6.63
2022-10-01T00:41:01.680Z,5.87
2022-10-01T00:43:40.034Z,5.80
2022-10-01T00:46:21.003Z,5.83
2022-10-01T00:48:58.125Z,5.83
2022-10-01T00:51:32.661Z,4.47
2022-10-01T00:54:06.825Z,5.93
2022-10-01T00:56:34.105Z,2.93
2022-10-01T00:59:01.693Z,3.47
2022-10-01T01:01:28.547Z,4.97
2022-10-01T01:03:56.298Z,3.70
2022-10-01T01:06:22.874Z,4.20
2022-10-01T01:08:54.934Z,3.70
2022-10-01T01:11:27.569Z,5.17
2022-10-01T01:13:54.157Z,6.03
2022-10-01T01:16:39.017Z,5.13
2022-10-01T01:19:33.029Z,6.67
2022-10-01T01:22:04.100Z,5.73
2022-10-01T01:24:51.772Z,4.40
2022-10-01T01:27:37.840Z,3.87
2022-10-01T01:30:08.252Z,5.83
2022-10-01T01:32:46.252Z,5.73
2022-10-01T01:35:19.498Z,4.93
2022-10-01T01:37:52.289Z,4.67
2022-10-01T01:40:20.990Z,3.97
2022-10-01T01:42:50.240Z,5.43
2022-10-01T01:45:25.871Z,4.10
2022-10-01T01:47:55.946Z,2.70
2022-10-01T01:50:28.234Z,9.07
2022-10-01T01:52:55.542Z,6.20
2022-10-01T01:55:25.033Z,3.67
2022-10-01T01:57:52.610Z,4.03
2022-10-01T02:00:19.285Z,3.80
2022-10-01T02:02:51.249Z,4.00
2022-10-01T02:05:25.632Z,3.03
2022-10-01T02:08:13.326Z,2.27
2022-10-01T02:11:19.530Z,6.57
2022-10-01T02:14:16.033Z,4.13
2022-10-01T02:17:08.831Z,3.47
2022-10-01T02:19:35.324Z,2.20
2022-10-01T02:22:11.619Z,3.10
2022-10-01T02:24:52.455Z,2.47
2022-10-01T02:27:26.408Z,3.77
2022-10-01T02:29:57.293Z,3.90
2022-10-01T02:32:24.067Z,2.20
2022-10-01T02:34:52.615Z,2.70
2022-10-01T02:37:22.336Z,3.07
2022-10-01T02:39:51.998Z,7.13
2022-10-01T02:42:21.262Z,2.30
2022-10-01T02:44:51.069Z,5.53
2022-10-01T02:47:33.945Z,2.50
2022-10-01T02:50:02.690Z,3.07
2022-10-01T02:52:49.825Z,3.07
2022-10-01T02:55:28.609Z,3.77
2022-10-01T02:57:56.703Z,1.70
2022-10-01T03:00:23.907Z,1.43
2022-10-01T03:02:50.537Z,2.17
2022-10-01T03:05:18.241Z,1.97
2022-10-01T03:07:44.812Z,1.83
2022-10-01T03:10:12.602Z,2.00
2022-10-01T03:12:45.026Z,1.70
2022-10-01T03:15:13.012Z,0.83
2022-10-01T03:17:39.613Z,0.77
2022-10-01T03:20:07.184Z,1.20
2022-10-01T03:22:34.741Z,0.47
2022-10-01T03:25:01.369Z,0.60
2022-10-01T03:27:28.000Z,0.50
2022-10-01T03:29:54.824Z,0.67
2022-10-01T03:32:21.433Z,1.07
2022-10-01T03:34:48.006Z,0.50
2022-10-01T03:37:14.703Z,0.40
2022-10-01T03:39:41.263Z,0.50
2022-10-01T03:42:07.843Z,1.60
2022-10-01T03:44:34.491Z,5.80
2022-10-01T03:47:01.076Z,0.40
2022-10-01T03:49:27.884Z,0.40
2022-10-01T03:51:54.525Z,1.07
2022-10-01T03:54:21.451Z,0.70
2022-10-01T03:56:48.783Z,0.30
2022-10-01T03:59:15.690Z,0.43
2022-10-01T04:01:42.375Z,0.40
2022-10-01T04:04:09.257Z,0.30
2022-10-01T04:06:35.807Z,0.30
2022-10-01T04:09:03.319Z,0.33
2022-10-01T04:11:30.665Z,0.30
2022-10-01T04:14:00.159Z,0.47
2022-10-01T04:16:26.828Z,0.40
2022-10-01T04:18:54.014Z,0.30
2022-10-01T04:21:20.619Z,0.47
2022-10-01T04:23:47.178Z,0.30
2022-10-01T04:26:13.976Z,0.40
2022-10-01T04:28:40.594Z,0.30
2022-10-01T04:31:25.468Z,0.30
2022-10-01T04:33:57.110Z,0.30
2022-10-01T04:36:24.998Z,0.20
2022-10-01T04:38:54.688Z,0.30
2022-10-01T04:41:23.473Z,0.27
2022-10-01T04:43:50.079Z,0.20
2022-10-01T04:46:16.985Z,0.30
2022-10-01T04:48:43.762Z,0.33
2022-10-01T04:51:10.330Z,0.83
2022-10-01T04:53:36.895Z,0.30
2022-10-01T04:56:03.455Z,0.40
2022-10-01T04:58:31.294Z,0.30
2022-10-01T05:01:01.830Z,0.30
2022-10-01T05:03:29.241Z,0.30
2022-10-01T05:05:55.801Z,0.40
2022-10-01T05:08:22.461Z,0.30
2022-10-01T05:10:49.031Z,0.27
2022-10-01T05:13:15.585Z,0.30
2022-10-01T05:15:42.133Z,0.30
2022-10-01T05:18:08.671Z,0.20
2022-10-01T05:20:35.291Z,0.30
2022-10-01T05:23:01.817Z,0.20
2022-10-01T05:25:28.678Z,0.30
2022-10-01T05:28:04.863Z,0.30
2022-10-01T05:30:32.517Z,0.30
2022-10-01T05:33:01.686Z,0.30
2022-10-01T05:35:29.437Z,0.27
2022-10-01T05:37:57.862Z,0.20
2022-10-01T05:40:27.340Z,0.30
2022-10-01T05:42:58.318Z,0.20
2022-10-01T05:45:27.223Z,0.20
2022-10-01T05:47:58.508Z,0.20
2022-10-01T05:50:26.234Z,0.50
2022-10-01T05:52:54.624Z,0.30
2022-10-01T05:55:22.400Z,0.30
2022-10-01T05:57:57.172Z,0.97
2022-10-01T06:00:24.208Z,0.20
2022-10-01T06:02:52.280Z,0.20
2022-10-01T06:05:20.007Z,0.20
2022-10-01T06:07:46.918Z,0.37
2022-10-01T06:10:13.698Z,0.20
2022-10-01T06:12:40.411Z,0.20
2022-10-01T06:15:07.498Z,1.33
2022-10-01T06:17:34.409Z,0.23
2022-10-01T06:20:01.204Z,0.23
2022-10-01T06:22:27.752Z,0.27
2022-10-01T06:24:56.666Z,0.20
2022-10-01T06:27:23.419Z,0.30
2022-10-01T06:29:49.956Z,0.30
2022-10-01T06:32:19.800Z,0.20
2022-10-01T06:34:46.389Z,0.30
2022-10-01T06:37:12.994Z,0.30
2022-10-01T06:39:39.763Z,0.30
2022-10-01T06:42:06.374Z,0.30
2022-10-01T06:44:32.924Z,0.20
2022-10-01T06:46:59.818Z,0.20
2022-10-01T06:49:26.670Z,0.83
2022-10-01T06:52:11.693Z,4.13
2022-10-01T06:54:38.408Z,0.20
2022-10-01T06:57:05.962Z,0.27
2022-10-01T06:59:36.450Z,0.90
2022-10-01T07:02:04.175Z,0.20
2022-10-01T07:04:30.956Z,0.30
2022-10-01T07:06:57.489Z,0.53
2022-10-01T07:09:25.420Z,0.30
2022-10-01T07:11:54.497Z,0.30
2022-10-01T07:14:21.649Z,1.40
2022-10-01T07:16:48.220Z,0.30
2022-10-01T07:19:14.861Z,0.63
2022-10-01T07:21:41.379Z,0.20
2022-10-01T07:24:07.908Z,1.00
2022-10-01T07:26:34.437Z,2.13
2022-10-01T07:29:01.284Z,1.30
2022-10-01T07:31:28.148Z,0.73
2022-10-01T07:33:58.341Z,1.70
2022-10-01T07:36:24.918Z,0.70
2022-10-01T07:38:51.529Z,0.20
2022-10-01T07:41:18.258Z,0.70
2022-10-01T07:43:46.912Z,0.70
2022-10-01T07:46:13.486Z,0.40
2022-10-01T07:48:41.159Z,0.30
2022-10-01T07:51:08.147Z,0.53
2022-10-01T07:53:34.734Z,2.30
2022-10-01T07:56:02.291Z,0.40
2022-10-01T07:58:28.874Z,0.30
2022-10-01T08:00:58.407Z,1.80
2022-10-01T08:03:25.325Z,0.37
2022-10-01T08:05:53.558Z,0.77
2022-10-01T08:08:20.330Z,0.67
2022-10-01T08:10:47.006Z,1.33
2022-10-01T08:13:16.089Z,2.20
2022-10-01T08:15:44.401Z,0.73
2022-10-01T08:18:11.407Z,0.93
2022-10-01T08:20:41.354Z,2.80
2022-10-01T08:23:10.556Z,1.87
2022-10-01T08:25:39.742Z,1.53
2022-10-01T08:28:07.306Z,1.60
2022-10-01T08:30:36.405Z,1.80
2022-10-01T08:33:03.875Z,2.37
2022-10-01T08:35:30.504Z,5.00
2022-10-01T08:38:04.239Z,2.13
2022-10-01T08:40:36.954Z,1.73
2022-10-01T08:43:06.923Z,3.03
2022-10-01T08:45:45.563Z,2.73
2022-10-01T08:48:15.792Z,2.07
2022-10-01T08:50:57.666Z,1.00
2022-10-01T08:53:45.478Z,3.83
2022-10-01T08:56:31.834Z,1.43
2022-10-01T08:59:02.462Z,1.30
2022-10-01T09:01:29.909Z,2.37
2022-10-01T09:03:56.858Z,3.57
2022-10-01T09:06:28.287Z,2.83
2022-10-01T09:09:22.653Z,2.13
2022-10-01T09:12:19.046Z,2.37
2022-10-01T09:15:13.814Z,3.40
2022-10-01T09:18:06.631Z,6.07
2022-10-01T09:20:39.009Z,4.67
2022-10-01T09:23:29.399Z,5.17
2022-10-01T09:25:58.211Z,2.37
2022-10-01T09:28:35.725Z,5.70
2022-10-01T09:31:20.803Z,5.30
2022-10-01T09:34:09.894Z,3.30
2022-10-01T09:36:39.581Z,5.13
2022-10-01T09:39:12.171Z,6.13
2022-10-01T09:41:38.738Z,2.10
2022-10-01T09:44:06.087Z,3.47
2022-10-01T09:46:33.476Z,3.63
2022-10-01T09:49:13.346Z,5.67
2022-10-01T09:51:46.200Z,3.13
2022-10-01T09:54:12.976Z,5.23
2022-10-01T09:56:45.151Z,7.77
2022-10-01T09:59:24.509Z,5.43
2022-10-01T10:01:56.165Z,3.70
2022-10-01T10:04:26.201Z,4.73
2022-10-01T10:07:00.445Z,4.90
2022-10-01T10:09:33.025Z,6.83
2022-10-01T10:12:00.087Z,5.50
2022-10-01T10:14:32.409Z,7.53
2022-10-01T10:17:12.162Z,4.30
2022-10-01T10:19:40.036Z,5.60
2022-10-01T10:22:13.326Z,3.43
2022-10-01T10:24:39.911Z,5.93
2022-10-01T10:27:24.883Z,6.37
2022-10-01T10:30:21.791Z,3.77
2022-10-01T10:32:48.435Z,5.63
2022-10-01T10:35:20.257Z,5.43
2022-10-01T10:37:52.491Z,4.13
2022-10-01T10:40:29.319Z,4.17
2022-10-01T10:42:58.769Z,2.73
2022-10-01T10:45:38.637Z,7.13
2022-10-01T10:48:11.453Z,9.17
2022-10-01T10:50:40.884Z,7.53
2022-10-01T10:53:28.522Z,8.67
2022-10-01T10:56:01.322Z,5.90
2022-10-01T10:58:33.783Z,8.13
2022-10-01T11:01:16.156Z,6.40
2022-10-01T11:03:47.469Z,8.07
2022-10-01T11:06:16.925Z,10.00
2022-10-01T11:08:44.231Z,9.93
2022-10-01T11:11:41.846Z,11.00
2022-10-01T11:14:32.211Z,14.83
2022-10-01T11:17:38.158Z,17.20
2022-10-01T11:20:33.468Z,9.07
2022-10-01T11:23:20.915Z,6.33
2022-10-01T11:26:10.480Z,10.30
2022-10-01T11:28:57.292Z,13.30
2022-10-01T11:31:47.183Z,14.80
2022-10-01T11:34:39.945Z,8.50
2022-10-01T11:37:30.620Z,17.67
2022-10-01T11:40:02.790Z,17.80
2022-10-01T11:42:36.088Z,11.73
2022-10-01T11:45:11.119Z,10.13
2022-10-01T11:47:43.726Z,10.10
2022-10-01T11:50:29.652Z,7.00
2022-10-01T11:53:16.958Z,10.40
2022-10-01T11:56:18.753Z,8.43
2022-10-01T11:58:51.461Z,5.33
2022-10-01T12:01:24.236Z,12.27
2022-10-01T12:03:53.602Z,9.03
2022-10-01T12:06:34.508Z,9.60
2022-10-01T12:09:33.734Z,9.33
2022-10-01T12:12:17.482Z,7.23
2022-10-01T12:15:06.699Z,6.40
2022-10-01T12:17:41.192Z,7.77
2022-10-01T12:20:31.749Z,5.73
2022-10-01T12:23:00.769Z,8.73
2022-10-01T12:25:51.030Z,6.90
2022-10-01T12:28:33.917Z,7.63
2022-10-01T12:31:20.439Z,10.13
2022-10-01T12:34:22.468Z,5.87
2022-10-01T12:37:14.435Z,7.03
2022-10-01T12:40:10.522Z,12.17
2022-10-01T12:42:40.278Z,8.43
2022-10-01T12:45:32.343Z,6.57
2022-10-01T12:48:18.185Z,6.30
2022-10-01T12:51:13.234Z,4.00
2022-10-01T12:53:51.138Z,10.43
2022-10-01T12:56:33.878Z,5.80
2022-10-01T12:59:26.916Z,5.70
2022-10-01T13:01:59.684Z,7.33
2022-10-01T13:04:44.764Z,11.37
2022-10-01T13:07:36.067Z,5.83
2022-10-01T13:10:02.589Z,10.70
2022-10-01T13:12:41.115Z,6.67
2022-10-01T13:15:15.397Z,6.30
2022-10-01T13:17:52.141Z,9.03
2022-10-01T13:20:40.958Z,6.80
2022-10-01T13:23:21.641Z,10.23
2022-10-01T13:26:25.905Z,7.13
2022-10-01T13:29:00.899Z,7.20
2022-10-01T13:31:52.683Z,8.80
2022-10-01T13:34:40.404Z,11.60
2022-10-01T13:37:15.426Z,7.53
2022-10-01T13:39:43.371Z,5.83
2022-10-01T13:42:35.819Z,8.87
2022-10-01T13:45:06.091Z,9.97
2022-10-01T13:47:39.789Z,9.77
2022-10-01T13:50:24.562Z,6.70
2022-10-01T13:53:04.414Z,5.27
2022-10-01T13:55:32.151Z,7.43
2022-10-01T13:58:07.144Z,6.33
2022-10-01T14:00:33.904Z,7.63
2022-10-01T14:03:34.309Z,5.50
2022-10-01T14:06:05.153Z,8.80
2022-10-01T14:08:44.857Z,11.17
2022-10-01T14:11:33.375Z,5.43
2022-10-01T14:14:41.825Z,2.40
2022-10-01T14:17:12.513Z,6.83
2022-10-01T14:19:46.912Z,4.20
2022-10-01T14:22:44.806Z,4.50
2022-10-01T14:25:29.004Z,7.13
2022-10-01T14:28:35.007Z,6.43
2022-10-01T14:31:18.517Z,5.78
2022-10-01T14:34:03.268Z,6.13
2022-10-01T14:36:35.480Z,5.32
2022-10-01T14:39:14.810Z,5.85
2022-10-01T14:41:42.087Z,3.50
2022-10-01T14:44:27.805Z,4.95
2022-10-01T14:46:56.994Z,9.55
2022-10-01T14:49:32.083Z,5.75
2022-10-01T14:52:01.434Z,9.10
2022-10-01T14:54:30.243Z,6.00
2022-10-01T14:56:56.957Z,3.20
2022-10-01T14:59:39.554Z,6.65
2022-10-01T15:02:21.173Z,6.18
2022-10-01T15:04:50.525Z,11.07
2022-10-01T15:07:18.536Z,5.35
2022-10-01T15:09:46.299Z,7.05
2022-10-01T15:12:18.870Z,8.52
2022-10-01T15:14:46.866Z,8.30
2022-10-01T15:17:21.967Z,7.47
2022-10-01T15:19:52.035Z,8.83
2022-10-01T15:22:26.900Z,9.90
2022-10-01T15:24:57.697Z,8.53
2022-10-01T15:27:24.876Z,9.80
2022-10-01T15:29:56.485Z,8.43
2022-10-01T15:32:25.130Z,8.03
2022-10-01T15:34:57.834Z,4.43
2022-10-01T15:37:32.766Z,8.90
2022-10-01T15:40:00.961Z,5.57
2022-10-01T15:42:33.488Z,8.73
2022-10-01T15:45:09.168Z,9.30
2022-10-01T15:47:37.832Z,7.63
2022-10-01T15:50:10.475Z,8.10
2022-10-01T15:52:51.436Z,7.35
2022-10-01T15:55:26.431Z,6.88
2022-10-01T15:58:17.281Z,8.52
2022-10-01T16:00:57.912Z,7.87
2022-10-01T16:03:33.214Z,7.73
2022-10-01T16:06:02.011Z,10.77
2022-10-01T16:08:35.600Z,8.77
2022-10-01T16:11:19.382Z,12.23
2022-10-01T16:13:51.058Z,6.57
2022-10-01T16:16:24.917Z,11.10
2022-10-01T16:18:58.474Z,6.60
2022-10-01T16:21:25.980Z,7.90
2022-10-01T16:23:54.687Z,15.23
2022-10-01T16:26:27.289Z,14.73
2022-10-01T16:28:56.751Z,9.93
2022-10-01T16:31:24.717Z,18.97
2022-10-01T16:33:51.688Z,17.13
2022-10-01T16:36:20.590Z,9.10
2022-10-01T16:38:48.170Z,9.53
2022-10-01T16:41:22.534Z,13.97
2022-10-01T16:43:51.595Z,13.87
2022-10-01T16:46:18.258Z,10.73
2022-10-01T16:48:47.691Z,12.07
2022-10-01T16:51:14.271Z,8.43
2022-10-01T16:53:43.507Z,10.50
2022-10-01T16:56:14.101Z,9.37
2022-10-01T16:58:43.019Z,8.70
2022-10-01T17:01:13.298Z,6.77
2022-10-01T17:03:40.081Z,11.60
2022-10-01T17:06:07.009Z,8.57
2022-10-01T17:08:33.551Z,7.23
2022-10-01T17:11:02.060Z,5.83
2022-10-01T17:13:32.542Z,12.03
2022-10-01T17:16:00.275Z,12.47
2022-10-01T17:18:26.911Z,8.33
2022-10-01T17:20:53.457Z,9.63
2022-10-01T17:23:22.299Z,12.00
2022-10-01T17:25:49.411Z,12.63
2022-10-01T17:28:18.771Z,11.20
2022-10-01T17:30:48.002Z,11.63
2022-10-01T17:33:16.830Z,8.47
2022-10-01T17:35:45.995Z,9.57
2022-10-01T17:38:13.292Z,10.77
2022-10-01T17:40:41.492Z,11.23
2022-10-01T17:43:14.253Z,9.23
2022-10-01T17:45:41.990Z,5.77
2022-10-01T17:48:08.990Z,10.70
2022-10-01T17:50:38.254Z,8.97
2022-10-01T17:53:04.934Z,12.03
2022-10-01T17:55:33.810Z,11.40
2022-10-01T17:58:00.382Z,15.30
2022-10-01T18:00:26.925Z,8.87
2022-10-01T18:02:53.948Z,9.07
2022-10-01T18:05:20.548Z,10.23
2022-10-01T18:07:47.109Z,7.77
2022-10-01T18:10:13.782Z,11.93
2022-10-01T18:12:40.896Z,10.43
2022-10-01T18:15:08.336Z,9.73
2022-10-01T18:17:36.752Z,10.40
2022-10-01T18:20:07.277Z,9.83
2022-10-01T18:22:37.755Z,11.67
2022-10-01T18:25:06.039Z,11.20
2022-10-01T18:27:32.613Z,14.00
2022-10-01T18:29:59.132Z,13.37
2022-10-01T18:32:27.785Z,10.60
2022-10-01T18:34:59.735Z,13.47
2022-10-01T18:37:46.618Z,14.73
2022-10-01T18:40:18.354Z,9.33
2022-10-01T18:43:12.670Z,12.93
2022-10-01T18:46:00.431Z,13.10
2022-10-01T18:48:45.658Z,17.50
2022-10-01T18:51:29.585Z,13.70
2022-10-01T18:54:22.563Z,19.27
2022-10-01T18:57:05.383Z,17.53
2022-10-01T18:59:50.586Z,17.33
2022-10-01T19:02:35.922Z,11.63
2022-10-01T19:05:33.433Z,14.90
2022-10-01T19:08:12.910Z,13.13
2022-10-01T19:11:00.743Z,20.07
2022-10-01T19:13:50.327Z,17.17
2022-10-01T19:16:47.815Z,14.97
2022-10-01T19:19:17.357Z,21.50
2022-10-01T19:21:55.540Z,18.90
2022-10-01T19:24:47.142Z,15.27
2022-10-01T19:27:42.535Z,14.40
2022-10-01T19:30:12.641Z,15.10
2022-10-01T19:32:48.387Z,19.50
2022-10-01T19:35:20.021Z,15.03
2022-10-01T19:38:08.285Z,15.10
2022-10-01T19:40:56.925Z,12.97
2022-10-01T19:43:49.111Z,18.03
2022-10-01T19:46:21.677Z,16.77
2022-10-01T19:48:54.828Z,11.17
2022-10-01T19:51:27.371Z,17.80
2022-10-01T19:54:00.882Z,17.47
2022-10-01T19:56:30.926Z,16.50
2022-10-01T19:59:01.750Z,17.70
2022-10-01T20:01:38.981Z,20.03
2022-10-01T20:04:19.411Z,13.20
2022-10-01T20:06:47.198Z,12.60
2022-10-01T20:09:28.886Z,19.07
2022-10-01T20:12:03.362Z,16.57
2022-10-01T20:15:11.483Z,16.50
2022-10-01T20:17:50.007Z,18.10
2022-10-01T20:20:52.740Z,14.87
2022-10-01T20:23:38.252Z,16.40
2022-10-01T20:26:35.056Z,9.63
2022-10-01T20:29:18.999Z,17.83
2022-10-01T20:31:53.868Z,11.03
2022-10-01T20:34:45.661Z,11.87
2022-10-01T20:37:38.202Z,17.80
2022-10-01T20:40:18.593Z,15.57
2022-10-01T20:42:48.987Z,14.37
2022-10-01T20:45:28.334Z,16.63
2022-10-01T20:47:59.948Z,16.63
2022-10-01T20:50:32.719Z,8.67
2022-10-01T20:53:38.693Z,9.40
2022-10-01T20:56:15.930Z,15.10
2022-10-01T20:59:10.030Z,12.33
2022-10-01T21:01:42.247Z,11.23
2022-10-01T21:04:20.682Z,20.57
2022-10-01T21:06:51.644Z,16.97
2022-10-01T21:09:30.950Z,8.23
2022-10-01T21:12:04.866Z,9.80
2022-10-01T21:14:41.630Z,12.43
2022-10-01T21:17:37.256Z,11.13
2022-10-01T21:20:22.393Z,13.00
2022-10-01T21:23:17.593Z,15.23
2022-10-01T21:26:11.129Z,14.80
2022-10-01T21:29:07.033Z,16.13
2022-10-01T21:32:12.257Z,20.90
2022-10-01T21:35:00.146Z,13.73
2022-10-01T21:37:42.826Z,13.20
2022-10-01T21:40:27.561Z,17.87
2022-10-01T21:43:28.574Z,11.03
2022-10-01T21:46:13.313Z,12.70
2022-10-01T21:48:40.036Z,8.33
2022-10-01T21:51:06.555Z,14.83
2022-10-01T21:53:52.342Z,16.00
2022-10-01T21:56:28.289Z,17.27
2022-10-01T21:59:06.082Z,12.03
2022-10-01T22:01:41.667Z,18.47
2022-10-01T22:04:32.692Z,16.93
2022-10-01T22:07:23.902Z,14.67
2022-10-01T22:09:56.396Z,11.30
2022-10-01T22:12:27.545Z,18.63
2022-10-01T22:14:57.819Z,19.33
2022-10-01T22:17:33.422Z,22.87
2022-10-01T22:20:04.571Z,12.30
2022-10-01T22:22:38.777Z,21.03
2022-10-01T22:25:07.401Z,24.97
2022-10-01T22:27:57.252Z,23.43
2022-10-01T22:30:28.752Z,21.50
2022-10-01T22:33:04.454Z,17.97
2022-10-01T22:35:41.071Z,23.30
2022-10-01T22:38:16.975Z,24.17
2022-10-01T22:40:50.294Z,23.77
2022-10-01T22:43:16.946Z,19.57
2022-10-01T22:45:53.158Z,24.50
2022-10-01T22:48:37.885Z,20.57
2022-10-01T22:51:22.605Z,15.50
2022-10-01T22:53:55.138Z,19.17
2022-10-01T22:56:43.177Z,17.83
2022-10-01T22:59:13.253Z,21.33
2022-10-01T23:02:07.171Z,28.43
2022-10-01T23:04:41.144Z,21.83
2022-10-01T23:07:26.394Z,23.40
2022-10-01T23:10:10.081Z,17.60
2022-10-01T23:13:07.561Z,17.37
2022-10-01T23:15:43.162Z,16.03
2022-10-01T23:18:36.038Z,17.40
2022-10-01T23:21:40.880Z,12.97
2022-10-01T23:24:25.436Z,17.20
2022-10-01T23:27:18.230Z,19.27
2022-10-01T23:29:53.646Z,19.93
2022-10-01T23:32:28.984Z,20.20
2022-10-01T23:35:17.669Z,21.77
2022-10-01T23:37:59.217Z,15.30
2022-10-01T23:40:33.736Z,12.90
2022-10-01T23:43:25.829Z,27.40
2022-10-01T23:45:59.981Z,15.97
2022-10-01T23:48:45.106Z,21.83
2022-10-01T23:51:17.663Z,19.97
2022-10-01T23:53:53.931Z,17.93
2022-10-01T23:56:43.988Z,23.90
2022-10-01T23:59:13.034Z,20.27
